createdAt,value
2018-08-25T00:00:02.154Z,313
2018-08-25T00:00:14.650Z,310
2018-08-25T00:00:27.073Z,309
2018-08-25T00:00:39.495Z,300
2018-08-25T00:00:51.925Z,300
2018-08-25T00:01:04.342Z,300
2018-08-25T00:01:16.804Z,300
2018-08-25T00:01:29.212Z,300
2018-08-25T00:01:41.661Z,300
2018-08-25T00:01:54.064Z,300
2018-08-25T00:02:06.485Z,269
2018-08-25T00:02:18.889Z,267
2018-08-25T00:02:31.303Z,267
2018-08-25T00:02:43.791Z,304
2018-08-25T00:02:56.338Z,304
2018-08-25T00:03:08.766Z,304
2018-08-25T00:03:21.174Z,304
2018-08-25T00:03:33.579Z,304
2018-08-25T00:03:46.004Z,304
2018-08-25T00:03:58.406Z,293
2018-08-25T00:04:10.830Z,293
2018-08-25T00:04:23.229Z,293
2018-08-25T00:04:35.652Z,293
2018-08-25T00:04:48.067Z,293
2018-08-25T00:05:00.474Z,293
2018-08-25T00:05:13.041Z,298
2018-08-25T00:05:25.540Z,279
2018-08-25T00:05:38.011Z,333
2018-08-25T00:05:50.425Z,331
2018-08-25T00:06:02.858Z,319
2018-08-25T00:06:15.285Z,319
2018-08-25T00:06:27.694Z,319
2018-08-25T00:06:40.108Z,319
2018-08-25T00:06:52.517Z,319
2018-08-25T00:07:05.019Z,319
2018-08-25T00:07:17.447Z,319
2018-08-25T00:07:29.878Z,319
2018-08-25T00:07:42.307Z,319
2018-08-25T00:07:54.709Z,319
2018-08-25T00:08:07.220Z,319
2018-08-25T00:08:19.652Z,319
2018-08-25T00:08:32.065Z,319
2018-08-25T00:08:44.466Z,319
2018-08-25T00:08:56.908Z,305
2018-08-25T00:09:09.330Z,303
2018-08-25T00:09:21.778Z,303
2018-08-25T00:09:34.209Z,303
2018-08-25T00:09:46.623Z,303
2018-08-25T00:09:59.046Z,303
2018-08-25T00:10:11.602Z,303
2018-08-25T00:10:24.182Z,303
2018-08-25T00:10:36.594Z,303
2018-08-25T00:10:49.012Z,297
2018-08-25T00:11:01.442Z,297
2018-08-25T00:11:13.851Z,297
2018-08-25T00:11:26.287Z,297
2018-08-25T00:11:38.693Z,266
2018-08-25T00:11:51.105Z,283
2018-08-25T00:12:03.532Z,306
2018-08-25T00:12:16.005Z,306
2018-08-25T00:12:28.421Z,306
2018-08-25T00:12:40.823Z,306
2018-08-25T00:12:53.252Z,304
2018-08-25T00:13:05.663Z,304
2018-08-25T00:13:18.092Z,304
2018-08-25T00:13:30.503Z,304
2018-08-25T00:13:42.920Z,304
2018-08-25T00:13:55.327Z,304
2018-08-25T00:14:07.736Z,304
2018-08-25T00:14:20.176Z,304
2018-08-25T00:14:32.591Z,304
2018-08-25T00:14:44.998Z,304
2018-08-25T00:14:57.428Z,304
2018-08-25T00:15:09.860Z,304
2018-08-25T00:15:22.289Z,304
2018-08-25T00:15:34.707Z,304
2018-08-25T00:15:47.108Z,304
2018-08-25T00:15:59.515Z,304
2018-08-25T00:16:11.941Z,304
2018-08-25T00:16:24.420Z,304
2018-08-25T00:16:36.882Z,304
2018-08-25T00:16:49.306Z,306
2018-08-25T00:17:01.736Z,306
2018-08-25T00:17:14.170Z,306
2018-08-25T00:17:26.581Z,313
2018-08-25T00:17:39.033Z,313
2018-08-25T00:17:51.454Z,313
2018-08-25T00:18:03.859Z,313
2018-08-25T00:18:16.270Z,321
2018-08-25T00:18:28.673Z,321
2018-08-25T00:18:41.243Z,321
2018-08-25T00:18:53.691Z,321
2018-08-25T00:19:06.102Z,321
2018-08-25T00:19:18.529Z,321
2018-08-25T00:19:30.952Z,321
2018-08-25T00:19:43.369Z,321
2018-08-25T00:19:55.771Z,321
2018-08-25T00:20:08.202Z,321
2018-08-25T00:20:20.643Z,321
2018-08-25T00:20:33.062Z,321
2018-08-25T00:20:45.485Z,320
2018-08-25T00:20:57.967Z,271
2018-08-25T00:21:10.390Z,254
2018-08-25T00:21:22.935Z,302
2018-08-25T00:21:35.358Z,300
2018-08-25T00:21:47.766Z,300
2018-08-25T00:22:00.171Z,313
2018-08-25T00:22:12.572Z,313
2018-08-25T00:22:24.977Z,314
2018-08-25T00:22:37.489Z,310
2018-08-25T00:22:49.898Z,310
2018-08-25T00:23:02.315Z,309
2018-08-25T00:23:14.722Z,307
2018-08-25T00:23:27.231Z,307
2018-08-25T00:23:39.677Z,307
2018-08-25T00:23:52.086Z,307
2018-08-25T00:24:04.634Z,307
2018-08-25T00:24:17.059Z,307
2018-08-25T00:24:29.482Z,307
2018-08-25T00:24:41.875Z,307
2018-08-25T00:24:54.294Z,307
2018-08-25T00:25:06.699Z,307
2018-08-25T00:25:19.090Z,307
2018-08-25T00:25:31.497Z,307
2018-08-25T00:25:43.911Z,307
2018-08-25T00:25:56.301Z,307
2018-08-25T00:26:08.718Z,307
2018-08-25T00:26:21.188Z,307
2018-08-25T00:26:33.620Z,307
2018-08-25T00:26:46.046Z,307
2018-08-25T00:26:58.458Z,307
2018-08-25T00:27:10.875Z,307
2018-08-25T00:27:23.284Z,307
2018-08-25T00:27:35.670Z,307
2018-08-25T00:27:48.086Z,307
2018-08-25T00:28:00.506Z,307
2018-08-25T00:28:13.000Z,307
2018-08-25T00:28:25.393Z,307
2018-08-25T00:28:37.818Z,307
2018-08-25T00:28:50.228Z,307
2018-08-25T00:29:02.642Z,307
2018-08-25T00:29:15.068Z,307
2018-08-25T00:29:27.487Z,307
2018-08-25T00:29:39.913Z,307
2018-08-25T00:29:52.343Z,307
2018-08-25T00:30:04.751Z,307
2018-08-25T00:30:17.320Z,307
2018-08-25T00:30:29.728Z,307
2018-08-25T00:30:42.134Z,307
2018-08-25T00:30:54.541Z,307
2018-08-25T00:31:07.006Z,307
2018-08-25T00:31:19.407Z,307
2018-08-25T00:31:31.799Z,307
2018-08-25T00:31:44.208Z,307
2018-08-25T00:31:56.611Z,307
2018-08-25T00:32:09.023Z,307
2018-08-25T00:32:21.432Z,307
2018-08-25T00:32:33.838Z,307
2018-08-25T00:32:46.477Z,307
2018-08-25T00:32:58.898Z,307
2018-08-25T00:33:11.342Z,307
2018-08-25T00:33:23.743Z,307
2018-08-25T00:33:36.152Z,307
2018-08-25T00:33:48.624Z,307
2018-08-25T00:34:01.075Z,307
2018-08-25T00:34:13.480Z,307
2018-08-25T00:34:26.075Z,307
2018-08-25T00:34:38.512Z,307
2018-08-25T00:34:50.916Z,307
2018-08-25T00:35:03.350Z,307
2018-08-25T00:35:15.812Z,307
2018-08-25T00:35:28.215Z,307
2018-08-25T00:35:40.617Z,307
2018-08-25T00:35:53.028Z,307
2018-08-25T00:36:05.445Z,307
2018-08-25T00:36:17.890Z,307
2018-08-25T00:36:30.302Z,307
2018-08-25T00:36:42.700Z,307
2018-08-25T00:36:55.096Z,307
2018-08-25T00:37:07.507Z,307
2018-08-25T00:37:19.909Z,307
2018-08-25T00:37:32.370Z,307
2018-08-25T00:37:44.845Z,307
2018-08-25T00:37:57.267Z,307
2018-08-25T00:38:09.678Z,307
2018-08-25T00:38:22.091Z,307
2018-08-25T00:38:34.501Z,307
2018-08-25T00:38:46.923Z,307
2018-08-25T00:38:59.325Z,307
2018-08-25T00:39:11.720Z,307
2018-08-25T00:39:24.141Z,307
2018-08-25T00:39:36.605Z,307
2018-08-25T00:39:49.035Z,307
2018-08-25T00:40:01.447Z,307
2018-08-25T00:40:13.898Z,307
2018-08-25T00:40:26.293Z,307
2018-08-25T00:40:38.685Z,307
2018-08-25T00:40:51.108Z,307
2018-08-25T00:41:03.507Z,307
2018-08-25T00:41:15.923Z,307
2018-08-25T00:41:28.331Z,307
2018-08-25T00:41:40.722Z,307
2018-08-25T00:41:53.125Z,307
2018-08-25T00:42:05.510Z,307
2018-08-25T00:42:17.959Z,307
2018-08-25T00:42:30.357Z,307
2018-08-25T00:42:42.743Z,307
2018-08-25T00:42:55.198Z,307
2018-08-25T00:43:07.602Z,307
2018-08-25T00:43:20.000Z,307
2018-08-25T00:43:32.422Z,307
2018-08-25T00:43:44.823Z,307
2018-08-25T00:43:57.251Z,307
2018-08-25T00:44:09.663Z,307
2018-08-25T00:44:22.069Z,307
2018-08-25T00:44:34.507Z,307
2018-08-25T00:44:46.933Z,307
2018-08-25T00:44:59.331Z,307
2018-08-25T00:45:11.771Z,307
2018-08-25T00:45:24.168Z,307
2018-08-25T00:45:36.636Z,307
2018-08-25T00:45:49.048Z,307
2018-08-25T00:46:01.538Z,307
2018-08-25T00:46:13.956Z,307
2018-08-25T00:46:26.391Z,307
2018-08-25T00:46:38.812Z,307
2018-08-25T00:46:51.217Z,307
2018-08-25T00:47:03.627Z,307
2018-08-25T00:47:16.036Z,307
2018-08-25T00:47:28.439Z,307
2018-08-25T00:47:41.050Z,307
2018-08-25T00:47:54.822Z,307
2018-08-25T00:48:07.412Z,307
2018-08-25T00:48:19.828Z,307
2018-08-25T00:48:32.267Z,307
2018-08-25T00:48:44.724Z,307
2018-08-25T00:48:57.144Z,307
2018-08-25T00:49:09.691Z,307
2018-08-25T00:49:22.102Z,307
2018-08-25T00:49:34.493Z,304
2018-08-25T00:49:46.931Z,304
2018-08-25T00:49:59.344Z,301
2018-08-25T00:50:11.771Z,300
2018-08-25T00:50:24.176Z,300
2018-08-25T00:50:36.589Z,300
2018-08-25T00:50:49.004Z,274
2018-08-25T00:51:01.416Z,265
2018-08-25T00:51:13.907Z,265
2018-08-25T00:51:26.327Z,265
2018-08-25T00:51:38.754Z,265
2018-08-25T00:51:51.151Z,265
2018-08-25T00:52:03.565Z,265
2018-08-25T00:52:16.214Z,265
2018-08-25T00:52:28.616Z,265
2018-08-25T00:52:41.013Z,265
2018-08-25T00:52:53.429Z,265
2018-08-25T00:53:05.808Z,265
2018-08-25T00:53:18.248Z,265
2018-08-25T00:53:30.659Z,265
2018-08-25T00:53:43.070Z,265
2018-08-25T00:53:55.487Z,265
2018-08-25T00:54:07.890Z,265
2018-08-25T00:54:20.300Z,265
2018-08-25T00:54:32.751Z,265
2018-08-25T00:54:45.155Z,265
2018-08-25T00:54:57.552Z,265
2018-08-25T00:55:09.962Z,265
2018-08-25T00:55:22.350Z,265
2018-08-25T00:55:35.072Z,265
2018-08-25T00:55:47.468Z,265
2018-08-25T00:55:59.869Z,265
2018-08-25T00:56:12.292Z,265
2018-08-25T00:56:24.723Z,265
2018-08-25T00:56:37.144Z,265
2018-08-25T00:56:49.536Z,265
2018-08-25T00:57:01.932Z,265
2018-08-25T00:57:14.342Z,265
2018-08-25T00:57:26.989Z,265
2018-08-25T00:57:39.816Z,265
2018-08-25T00:57:52.225Z,265
2018-08-25T00:58:04.662Z,265
2018-08-25T00:58:17.055Z,265
2018-08-25T00:58:29.457Z,265
2018-08-25T00:58:41.858Z,265
2018-08-25T00:58:54.308Z,265
2018-08-25T00:59:06.728Z,265
2018-08-25T00:59:19.520Z,265
2018-08-25T00:59:33.175Z,265
2018-08-25T00:59:45.594Z,265
2018-08-25T00:59:58.001Z,265
2018-08-25T01:00:10.426Z,265
2018-08-25T01:00:22.878Z,265
2018-08-25T01:00:35.348Z,265
2018-08-25T01:00:47.831Z,265
2018-08-25T01:01:00.255Z,265
2018-08-25T01:01:12.689Z,265
2018-08-25T01:01:25.085Z,265
2018-08-25T01:01:37.492Z,265
2018-08-25T01:01:49.927Z,265
2018-08-25T01:02:02.325Z,265
2018-08-25T01:02:14.766Z,265
2018-08-25T01:02:27.188Z,265
2018-08-25T01:02:39.717Z,265
2018-08-25T01:02:52.219Z,265
2018-08-25T01:03:04.642Z,265
2018-08-25T01:03:17.049Z,265
2018-08-25T01:03:29.460Z,265
2018-08-25T01:03:41.877Z,265
2018-08-25T01:03:54.275Z,265
2018-08-25T01:04:06.746Z,265
2018-08-25T01:04:19.165Z,265
2018-08-25T01:04:31.586Z,265
2018-08-25T01:04:44.000Z,265
2018-08-25T01:04:56.413Z,265
2018-08-25T01:05:08.834Z,265
2018-08-25T01:05:21.244Z,265
2018-08-25T01:05:33.702Z,265
2018-08-25T01:05:46.113Z,265
2018-08-25T01:05:58.506Z,265
2018-08-25T01:06:10.899Z,265
2018-08-25T01:06:23.323Z,265
2018-08-25T01:06:35.742Z,265
2018-08-25T01:06:48.205Z,265
2018-08-25T01:07:00.636Z,265
2018-08-25T01:07:13.051Z,265
2018-08-25T01:07:25.498Z,265
2018-08-25T01:07:37.927Z,265
2018-08-25T01:07:50.364Z,265
2018-08-25T01:08:02.826Z,265
2018-08-25T01:08:15.225Z,265
2018-08-25T01:08:27.627Z,265
2018-08-25T01:08:40.037Z,265
2018-08-25T01:08:52.466Z,265
2018-08-25T01:09:04.899Z,265
2018-08-25T01:09:17.298Z,265
2018-08-25T01:09:29.718Z,265
2018-08-25T01:09:42.146Z,265
2018-08-25T01:09:54.563Z,261
2018-08-25T01:10:07.194Z,261
2018-08-25T01:10:19.598Z,258
2018-08-25T01:10:32.201Z,258
2018-08-25T01:10:44.613Z,257
2018-08-25T01:10:57.010Z,257
2018-08-25T01:11:09.427Z,257
2018-08-25T01:11:21.860Z,257
2018-08-25T01:11:34.269Z,257
2018-08-25T01:11:46.681Z,257
2018-08-25T01:11:59.088Z,257
2018-08-25T01:12:11.512Z,257
2018-08-25T01:12:23.928Z,257
2018-08-25T01:12:36.352Z,257
2018-08-25T01:12:48.766Z,257
2018-08-25T01:13:01.187Z,257
2018-08-25T01:13:13.614Z,257
2018-08-25T01:13:26.015Z,257
2018-08-25T01:13:38.437Z,257
2018-08-25T01:13:50.842Z,257
2018-08-25T01:14:03.240Z,257
2018-08-25T01:14:15.633Z,257
2018-08-25T01:14:28.040Z,257
2018-08-25T01:14:40.452Z,254
2018-08-25T01:14:52.852Z,225
2018-08-25T01:15:05.251Z,225
2018-08-25T01:15:17.674Z,225
2018-08-25T01:15:30.407Z,225
2018-08-25T01:15:43.657Z,225
2018-08-25T01:15:56.813Z,225
2018-08-25T01:16:09.225Z,225
2018-08-25T01:16:21.656Z,225
2018-08-25T01:16:34.089Z,225
2018-08-25T01:16:46.499Z,225
2018-08-25T01:16:58.951Z,225
2018-08-25T01:17:11.383Z,225
2018-08-25T01:17:23.797Z,225
2018-08-25T01:17:36.217Z,225
2018-08-25T01:17:48.676Z,225
2018-08-25T01:18:01.084Z,225
2018-08-25T01:18:13.495Z,225
2018-08-25T01:18:25.921Z,225
2018-08-25T01:18:38.509Z,225
2018-08-25T01:18:51.084Z,225
2018-08-25T01:19:03.502Z,225
2018-08-25T01:19:15.933Z,225
2018-08-25T01:19:28.349Z,225
2018-08-25T01:19:40.786Z,200
2018-08-25T01:19:53.207Z,200
2018-08-25T01:20:05.619Z,200
2018-08-25T01:20:18.027Z,200
2018-08-25T01:20:30.435Z,200
2018-08-25T01:20:42.984Z,197
2018-08-25T01:20:55.411Z,184
2018-08-25T01:21:07.813Z,184
2018-08-25T01:21:20.240Z,184
2018-08-25T01:21:32.649Z,184
2018-08-25T01:21:45.055Z,184
2018-08-25T01:21:57.456Z,184
2018-08-25T01:22:09.910Z,184
2018-08-25T01:22:22.316Z,184
2018-08-25T01:22:34.840Z,184
2018-08-25T01:22:47.234Z,184
2018-08-25T01:22:59.671Z,184
2018-08-25T01:23:12.138Z,184
2018-08-25T01:23:24.591Z,184
2018-08-25T01:23:37.025Z,184
2018-08-25T01:23:49.455Z,184
2018-08-25T01:24:01.940Z,184
2018-08-25T01:24:14.407Z,184
2018-08-25T01:24:26.808Z,184
2018-08-25T01:24:39.223Z,184
2018-08-25T01:24:51.639Z,184
2018-08-25T01:25:04.071Z,184
2018-08-25T01:25:16.484Z,184
2018-08-25T01:25:28.889Z,184
2018-08-25T01:25:41.315Z,184
2018-08-25T01:25:53.733Z,184
2018-08-25T01:26:06.144Z,184
2018-08-25T01:26:18.553Z,184
2018-08-25T01:26:30.951Z,184
2018-08-25T01:26:43.366Z,184
2018-08-25T01:26:55.805Z,184
2018-08-25T01:27:08.201Z,184
2018-08-25T01:27:20.609Z,184
2018-08-25T01:27:33.024Z,184
2018-08-25T01:27:45.428Z,184
2018-08-25T01:27:57.841Z,184
2018-08-25T01:28:10.647Z,184
2018-08-25T01:28:23.069Z,189
2018-08-25T01:28:35.484Z,257
2018-08-25T01:28:47.870Z,257
2018-08-25T01:29:00.281Z,257
2018-08-25T01:29:12.693Z,257
2018-08-25T01:29:25.104Z,257
2018-08-25T01:29:37.537Z,257
2018-08-25T01:29:49.962Z,257
2018-08-25T01:30:02.375Z,254
2018-08-25T01:30:14.798Z,254
2018-08-25T01:30:27.202Z,241
2018-08-25T01:30:39.598Z,241
2018-08-25T01:30:52.022Z,241
2018-08-25T01:31:04.486Z,241
2018-08-25T01:31:16.894Z,241
2018-08-25T01:31:29.312Z,241
2018-08-25T01:31:41.744Z,241
2018-08-25T01:31:54.164Z,241
2018-08-25T01:32:06.583Z,241
2018-08-25T01:32:19.003Z,241
2018-08-25T01:32:31.428Z,240
2018-08-25T01:32:43.994Z,240
2018-08-25T01:32:56.419Z,240
2018-08-25T01:33:08.866Z,239
2018-08-25T01:33:21.331Z,239
2018-08-25T01:33:33.747Z,239
2018-08-25T01:33:46.157Z,239
2018-08-25T01:33:58.600Z,239
2018-08-25T01:34:11.013Z,239
2018-08-25T01:34:23.582Z,237
2018-08-25T01:34:36.053Z,205
2018-08-25T01:34:48.481Z,205
2018-08-25T01:35:00.885Z,205
2018-08-25T01:35:13.300Z,205
2018-08-25T01:35:25.718Z,205
2018-08-25T01:35:38.165Z,205
2018-08-25T01:35:50.591Z,205
2018-08-25T01:36:02.994Z,205
2018-08-25T01:36:15.422Z,205
2018-08-25T01:36:27.862Z,205
2018-08-25T01:36:40.297Z,205
2018-08-25T01:36:52.715Z,205
2018-08-25T01:37:05.171Z,205
2018-08-25T01:37:17.585Z,205
2018-08-25T01:37:30.001Z,205
2018-08-25T01:37:42.400Z,205
2018-08-25T01:37:54.823Z,205
2018-08-25T01:38:07.238Z,205
2018-08-25T01:38:19.699Z,205
2018-08-25T01:38:32.126Z,205
2018-08-25T01:38:44.542Z,205
2018-08-25T01:38:56.981Z,205
2018-08-25T01:39:09.406Z,205
2018-08-25T01:39:21.852Z,205
2018-08-25T01:39:34.254Z,205
2018-08-25T01:39:46.649Z,205
2018-08-25T01:39:59.062Z,205
2018-08-25T01:40:11.485Z,205
2018-08-25T01:40:23.888Z,205
2018-08-25T01:40:36.298Z,205
2018-08-25T01:40:48.719Z,205
2018-08-25T01:41:01.121Z,205
2018-08-25T01:41:13.539Z,205
2018-08-25T01:41:25.961Z,205
2018-08-25T01:41:38.363Z,205
2018-08-25T01:41:50.781Z,202
2018-08-25T01:42:03.191Z,196
2018-08-25T01:42:15.608Z,194
2018-08-25T01:42:28.013Z,192
2018-08-25T01:42:40.421Z,192
2018-08-25T01:42:52.833Z,192
2018-08-25T01:43:05.329Z,192
2018-08-25T01:43:17.756Z,192
2018-08-25T01:43:30.154Z,192
2018-08-25T01:43:42.568Z,192
2018-08-25T01:43:55.036Z,192
2018-08-25T01:44:07.479Z,192
2018-08-25T01:44:19.919Z,192
2018-08-25T01:44:32.374Z,192
2018-08-25T01:44:44.771Z,192
2018-08-25T01:44:57.183Z,192
2018-08-25T01:45:09.611Z,192
2018-08-25T01:45:22.017Z,192
2018-08-25T01:45:34.467Z,192
2018-08-25T01:45:46.872Z,192
2018-08-25T01:45:59.253Z,192
2018-08-25T01:46:11.661Z,192
2018-08-25T01:46:24.057Z,192
2018-08-25T01:46:36.446Z,192
2018-08-25T01:46:48.869Z,192
2018-08-25T01:47:01.271Z,192
2018-08-25T01:47:13.684Z,192
2018-08-25T01:47:26.064Z,192
2018-08-25T01:47:38.470Z,192
2018-08-25T01:47:51.077Z,192
2018-08-25T01:48:03.478Z,192
2018-08-25T01:48:15.880Z,192
2018-08-25T01:48:28.302Z,192
2018-08-25T01:48:40.700Z,192
2018-08-25T01:48:53.154Z,192
2018-08-25T01:49:05.633Z,192
2018-08-25T01:49:18.057Z,192
2018-08-25T01:49:30.453Z,192
2018-08-25T01:49:42.852Z,192
2018-08-25T01:49:55.259Z,192
2018-08-25T01:50:07.681Z,192
2018-08-25T01:50:20.099Z,192
2018-08-25T01:50:32.504Z,192
2018-08-25T01:50:44.940Z,192
2018-08-25T01:50:57.365Z,192
2018-08-25T01:51:09.904Z,192
2018-08-25T01:51:22.307Z,192
2018-08-25T01:51:34.722Z,192
2018-08-25T01:51:47.141Z,192
2018-08-25T01:51:59.548Z,192
2018-08-25T01:52:12.125Z,192
2018-08-25T01:52:24.517Z,192
2018-08-25T01:52:36.926Z,192
2018-08-25T01:52:49.323Z,192
2018-08-25T01:53:01.852Z,192
2018-08-25T01:53:14.253Z,192
2018-08-25T01:53:26.684Z,192
2018-08-25T01:53:39.097Z,192
2018-08-25T01:53:51.496Z,192
2018-08-25T01:54:03.899Z,192
2018-08-25T01:54:16.336Z,192
2018-08-25T01:54:28.785Z,192
2018-08-25T01:54:41.182Z,192
2018-08-25T01:54:53.597Z,192
2018-08-25T01:55:06.001Z,192
2018-08-25T01:55:18.407Z,192
2018-08-25T01:55:30.840Z,192
2018-08-25T01:55:43.259Z,192
2018-08-25T01:55:55.668Z,192
2018-08-25T01:56:08.368Z,192
2018-08-25T01:56:21.290Z,192
2018-08-25T01:56:33.690Z,192
2018-08-25T01:56:46.089Z,192
2018-08-25T01:56:58.484Z,192
2018-08-25T01:57:10.896Z,192
2018-08-25T01:57:23.292Z,192
2018-08-25T01:57:35.717Z,192
2018-08-25T01:57:48.273Z,192
2018-08-25T01:58:00.687Z,192
2018-08-25T01:58:13.099Z,192
2018-08-25T01:58:25.553Z,192
2018-08-25T01:58:37.940Z,192
2018-08-25T01:58:50.373Z,192
2018-08-25T01:59:02.781Z,192
2018-08-25T01:59:15.202Z,192
2018-08-25T01:59:27.638Z,192
2018-08-25T01:59:40.053Z,192
2018-08-25T01:59:52.501Z,192
2018-08-25T02:00:04.924Z,192
2018-08-25T02:00:17.351Z,192
2018-08-25T02:00:29.804Z,192
2018-08-25T02:00:42.268Z,192
2018-08-25T02:00:54.712Z,192
2018-08-25T02:01:07.168Z,192
2018-08-25T02:01:19.612Z,192
2018-08-25T02:01:32.040Z,192
2018-08-25T02:01:44.515Z,192
2018-08-25T02:01:56.945Z,192
2018-08-25T02:02:09.379Z,192
2018-08-25T02:02:21.791Z,192
2018-08-25T02:02:34.335Z,192
2018-08-25T02:02:47.902Z,192
2018-08-25T02:03:01.208Z,192
2018-08-25T02:03:13.641Z,192
2018-08-25T02:03:26.054Z,192
2018-08-25T02:03:38.475Z,192
2018-08-25T02:03:50.904Z,192
2018-08-25T02:04:03.323Z,192
2018-08-25T02:04:15.736Z,192
2018-08-25T02:04:28.152Z,192
2018-08-25T02:04:40.589Z,192
2018-08-25T02:04:52.997Z,192
2018-08-25T02:05:05.423Z,192
2018-08-25T02:05:17.843Z,192
2018-08-25T02:05:30.412Z,192
2018-08-25T02:05:42.831Z,192
2018-08-25T02:05:55.288Z,192
2018-08-25T02:06:07.704Z,192
2018-08-25T02:06:20.112Z,192
2018-08-25T02:06:32.524Z,192
2018-08-25T02:06:44.971Z,192
2018-08-25T02:06:57.390Z,192
2018-08-25T02:07:09.808Z,192
2018-08-25T02:07:22.203Z,192
2018-08-25T02:07:34.626Z,192
2018-08-25T02:07:47.047Z,192
2018-08-25T02:07:59.482Z,192
2018-08-25T02:08:12.241Z,192
2018-08-25T02:08:24.646Z,192
2018-08-25T02:08:37.076Z,192
2018-08-25T02:08:49.500Z,192
2018-08-25T02:09:01.940Z,192
2018-08-25T02:09:14.371Z,192
2018-08-25T02:09:26.786Z,192
2018-08-25T02:09:39.213Z,192
2018-08-25T02:09:51.623Z,192
2018-08-25T02:10:04.183Z,192
2018-08-25T02:10:16.627Z,192
2018-08-25T02:10:29.046Z,192
2018-08-25T02:10:41.503Z,192
2018-08-25T02:10:53.935Z,192
2018-08-25T02:11:06.389Z,192
2018-08-25T02:11:18.810Z,192
2018-08-25T02:11:31.232Z,192
2018-08-25T02:11:43.657Z,192
2018-08-25T02:11:56.115Z,192
2018-08-25T02:12:08.606Z,192
2018-08-25T02:12:21.056Z,192
2018-08-25T02:12:33.465Z,192
2018-08-25T02:12:45.876Z,192
2018-08-25T02:12:58.290Z,192
2018-08-25T02:13:10.722Z,192
2018-08-25T02:13:23.157Z,192
2018-08-25T02:13:35.566Z,192
2018-08-25T02:13:48.109Z,192
2018-08-25T02:14:00.522Z,192
2018-08-25T02:14:12.924Z,192
2018-08-25T02:14:25.341Z,192
2018-08-25T02:14:37.745Z,192
2018-08-25T02:14:50.156Z,192
2018-08-25T02:15:02.585Z,192
2018-08-25T02:15:14.989Z,192
2018-08-25T02:15:27.405Z,192
2018-08-25T02:15:39.804Z,192
2018-08-25T02:15:52.221Z,192
2018-08-25T02:16:04.643Z,192
2018-08-25T02:16:17.041Z,192
2018-08-25T02:16:29.467Z,192
2018-08-25T02:16:41.868Z,192
2018-08-25T02:16:54.262Z,192
2018-08-25T02:17:06.670Z,192
2018-08-25T02:17:19.071Z,192
2018-08-25T02:17:31.468Z,192
2018-08-25T02:17:43.886Z,192
2018-08-25T02:17:56.288Z,192
2018-08-25T02:18:08.695Z,192
2018-08-25T02:18:21.109Z,192
2018-08-25T02:18:33.524Z,192
2018-08-25T02:18:46.055Z,192
2018-08-25T02:18:58.458Z,192
2018-08-25T02:19:10.893Z,192
2018-08-25T02:19:23.293Z,192
2018-08-25T02:19:35.701Z,192
2018-08-25T02:19:48.104Z,192
2018-08-25T02:20:00.531Z,192
2018-08-25T02:20:12.987Z,192
2018-08-25T02:20:25.388Z,192
2018-08-25T02:20:37.800Z,192
2018-08-25T02:20:50.203Z,192
2018-08-25T02:21:02.619Z,192
2018-08-25T02:21:15.038Z,192
2018-08-25T02:21:27.431Z,192
2018-08-25T02:21:39.935Z,192
2018-08-25T02:21:52.371Z,192
2018-08-25T02:22:04.791Z,192
2018-08-25T02:22:17.256Z,192
2018-08-25T02:22:29.651Z,192
2018-08-25T02:22:42.274Z,192
2018-08-25T02:22:54.681Z,192
2018-08-25T02:23:07.093Z,192
2018-08-25T02:23:19.494Z,192
2018-08-25T02:23:31.902Z,192
2018-08-25T02:23:44.326Z,192
2018-08-25T02:23:56.728Z,192
2018-08-25T02:24:09.280Z,192
2018-08-25T02:24:21.689Z,192
2018-08-25T02:24:34.088Z,192
2018-08-25T02:24:46.684Z,192
2018-08-25T02:24:59.099Z,192
2018-08-25T02:25:11.496Z,192
2018-08-25T02:25:23.909Z,192
2018-08-25T02:25:36.308Z,192
2018-08-25T02:25:48.719Z,192
2018-08-25T02:26:01.120Z,192
2018-08-25T02:26:13.525Z,192
2018-08-25T02:26:25.939Z,192
2018-08-25T02:26:38.361Z,192
2018-08-25T02:26:50.826Z,192
2018-08-25T02:27:03.229Z,192
2018-08-25T02:27:15.696Z,192
2018-08-25T02:27:28.105Z,192
2018-08-25T02:27:40.510Z,192
2018-08-25T02:27:52.916Z,192
2018-08-25T02:28:05.754Z,192
2018-08-25T02:28:19.214Z,192
2018-08-25T02:28:32.204Z,192
2018-08-25T02:28:44.596Z,192
2018-08-25T02:28:57.032Z,192
2018-08-25T02:29:09.466Z,192
2018-08-25T02:29:21.873Z,192
2018-08-25T02:29:34.317Z,192
2018-08-25T02:29:46.766Z,192
2018-08-25T02:29:59.169Z,192
2018-08-25T02:30:11.613Z,192
2018-08-25T02:30:24.074Z,192
2018-08-25T02:30:36.498Z,192
2018-08-25T02:30:48.933Z,192
2018-08-25T02:31:01.405Z,192
2018-08-25T02:31:13.879Z,192
2018-08-25T02:31:26.328Z,192
2018-08-25T02:31:38.744Z,192
2018-08-25T02:31:51.187Z,192
2018-08-25T02:32:03.631Z,192
2018-08-25T02:32:16.053Z,192
2018-08-25T02:32:28.489Z,192
2018-08-25T02:32:41.075Z,191
2018-08-25T02:32:53.498Z,178
2018-08-25T02:33:05.907Z,178
2018-08-25T02:33:18.336Z,178
2018-08-25T02:33:30.794Z,178
2018-08-25T02:33:43.216Z,178
2018-08-25T02:33:55.620Z,177
2018-08-25T02:34:08.094Z,177
2018-08-25T02:34:20.741Z,177
2018-08-25T02:34:33.162Z,177
2018-08-25T02:34:45.569Z,177
2018-08-25T02:34:58.044Z,177
2018-08-25T02:35:10.484Z,177
2018-08-25T02:35:22.916Z,176
2018-08-25T02:35:35.357Z,177
2018-08-25T02:35:47.787Z,177
2018-08-25T02:36:00.219Z,177
2018-08-25T02:36:12.661Z,177
2018-08-25T02:36:25.085Z,176
2018-08-25T02:36:37.472Z,177
2018-08-25T02:36:49.896Z,176
2018-08-25T02:37:02.296Z,176
2018-08-25T02:37:14.706Z,176
2018-08-25T02:37:27.126Z,176
2018-08-25T02:37:39.544Z,176
2018-08-25T02:37:51.968Z,176
2018-08-25T02:38:04.418Z,176
2018-08-25T02:38:16.827Z,176
2018-08-25T02:38:29.278Z,176
2018-08-25T02:38:42.565Z,176
2018-08-25T02:38:56.061Z,176
2018-08-25T02:39:08.533Z,177
2018-08-25T02:39:21.054Z,182
2018-08-25T02:39:33.471Z,182
2018-08-25T02:39:45.903Z,192
2018-08-25T02:39:58.312Z,199
2018-08-25T02:40:10.744Z,200
2018-08-25T02:40:23.168Z,182
2018-08-25T02:40:35.565Z,182
2018-08-25T02:40:47.969Z,182
2018-08-25T02:41:00.370Z,182
2018-08-25T02:41:12.790Z,182
2018-08-25T02:41:25.201Z,182
2018-08-25T02:41:37.599Z,182
2018-08-25T02:41:50.008Z,182
2018-08-25T02:42:02.429Z,182
2018-08-25T02:42:14.853Z,182
2018-08-25T02:42:27.262Z,182
2018-08-25T02:42:39.679Z,182
2018-08-25T02:42:52.084Z,182
2018-08-25T02:43:04.509Z,182
2018-08-25T02:43:16.923Z,182
2018-08-25T02:43:29.330Z,182
2018-08-25T02:43:41.811Z,182
2018-08-25T02:43:54.265Z,182
2018-08-25T02:44:06.729Z,182
2018-08-25T02:44:19.160Z,182
2018-08-25T02:44:31.586Z,182
2018-08-25T02:44:43.998Z,182
2018-08-25T02:44:56.389Z,180
2018-08-25T02:45:08.891Z,181
2018-08-25T02:45:21.316Z,183
2018-08-25T02:45:33.737Z,183
2018-08-25T02:45:46.155Z,183
2018-08-25T02:45:58.557Z,184
2018-08-25T02:46:10.975Z,174
2018-08-25T02:46:23.385Z,174
2018-08-25T02:46:35.826Z,174
2018-08-25T02:46:48.260Z,184
2018-08-25T02:47:00.688Z,197
2018-08-25T02:47:13.155Z,200
2018-08-25T02:47:25.588Z,200
2018-08-25T02:47:37.987Z,200
2018-08-25T02:47:50.531Z,200
2018-08-25T02:48:02.938Z,200
2018-08-25T02:48:15.350Z,200
2018-08-25T02:48:27.787Z,200
2018-08-25T02:48:40.221Z,200
2018-08-25T02:48:52.639Z,200
2018-08-25T02:49:05.219Z,200
2018-08-25T02:49:17.632Z,200
2018-08-25T02:49:30.059Z,200
2018-08-25T02:49:42.465Z,200
2018-08-25T02:49:54.875Z,199
2018-08-25T02:50:07.289Z,140
2018-08-25T02:50:19.702Z,137
2018-08-25T02:50:32.116Z,145
2018-08-25T02:50:44.530Z,145
2018-08-25T02:50:56.967Z,145
2018-08-25T02:51:09.526Z,186
2018-08-25T02:51:21.936Z,192